Time;durP1;ratioP1;P1;durP2;ratioP2;P2;SDS_P1;SDS_P2;PMS_P1;PMS_P2;Temp;Humidity;BMP_temperature;BMP_pressure;BME280_temperature;BME280_humidity;BME280_pressure;Samples;Min_cycle;Max_cycle;Signal;HPM_P1;HPM_P2
2022/05/18 04:07:46;;;;;;;14.52;4.07;;;;;;;16.51;100.00;94775.94;4797433;30;20055;-94
2022/05/18 04:10:12;;;;;;;14.15;4.13;;;;;;;16.51;100.00;94774.09;4784250;30;20039;-95
2022/05/18 04:12:38;;;;;;;8.73;4.28;;;;;;;16.75;100.00;94782.88;4785028;30;20066;-93
2022/05/18 04:15:04;;;;;;;10.05;4.10;;;;;;;17.05;100.00;94780.69;4800024;30;20047;-95
2022/05/18 04:17:35;;;;;;;9.35;4.07;;;;;;;17.22;100.00;94785.38;4796063;30;20103;-94
2022/05/18 04:20:03;;;;;;;8.10;3.90;;;;;;;17.21;100.00;94789.06;4797517;30;20043;-95
2022/05/18 04:22:28;;;;;;;14.43;4.80;;;;;;;17.10;100.00;94796.47;4795699;30;20039;-95
2022/05/18 04:25:01;;;;;;;9.38;4.25;;;;;;;16.78;100.00;94790.97;4813866;29;20557;-95
2022/05/18 04:27:28;;;;;;;10.68;4.28;;;;;;;16.61;100.00;94793.47;4801248;30;20129;-94
2022/05/18 04:29:54;;;;;;;9.77;4.30;;;;;;;16.42;100.00;94794.34;4784119;30;20142;-96
2022/05/18 04:32:21;;;;;;;17.63;5.55;;;;;;;16.27;100.00;94799.91;4796051;30;20045;-94
2022/05/18 04:34:48;;;;;;;15.27;4.70;;;;;;;16.43;100.00;94801.19;4795929;30;20035;-95
2022/05/18 04:37:17;;;;;;;10.93;4.68;;;;;;;16.27;100.00;94798.03;4794108;30;20088;-95
2022/05/18 04:39:43;;;;;;;10.75;5.40;;;;;;;16.36;100.00;94804.22;4794004;30;20035;-95
2022/05/18 04:42:11;;;;;;;8.90;4.50;;;;;;;16.71;100.00;94811.78;4795638;30;20031;-94
2022/05/18 04:44:38;;;;;;;8.57;4.40;;;;;;;16.95;100.00;94814.19;4794377;30;20045;-95
2022/05/18 04:47:04;;;;;;;10.73;4.43;;;;;;;16.82;100.00;94818.44;4809502;29;20038;-95
2022/05/18 04:49:32;;;;;;;10.85;4.57;;;;;;;16.82;100.00;94820.28;4779509;29;20039;-94
2022/05/18 04:52:28;;;;;;;8.52;4.18;;;;;;;16.62;100.00;94816.19;4804428;30;20046;-96
2022/05/18 04:55:14;;;;;;;11.50;4.55;;;;;;;16.62;100.00;94824.13;4803039;29;20042;-96
2022/05/18 04:57:41;;;;;;;12.95;4.72;;;;;;;16.54;100.00;94823.75;4793019;30;20031;-94
2022/05/18 05:00:09;;;;;;;10.10;5.00;;;;;;;16.37;100.00;94831.47;4792104;30;20047;-94
2022/05/18 05:05:57;;;;;;;9.73;4.40;;;;;;;16.52;100.00;94840.97;4793059;29;20085;-94
2022/05/18 05:08:22;;;;;;;12.88;4.47;;;;;;;16.86;100.00;94842.47;4777102;30;20066;-95
2022/05/18 05:10:48;;;;;;;10.77;4.47;;;;;;;17.52;100.00;94847.44;4791969;30;20031;-94
2022/05/18 05:13:14;;;;;;;12.65;4.28;;;;;;;17.73;100.00;94848.84;4792224;30;20412;-94
2022/05/18 05:15:39;;;;;;;13.13;4.57;;;;;;;17.36;100.00;94854.16;4777321;30;20184;-95
2022/05/18 05:18:06;;;;;;;12.90;5.30;;;;;;;17.30;100.00;94856.13;4792081;30;20031;-94
2022/05/18 05:20:32;;;;;;;13.07;4.65;;;;;;;17.43;100.00;94856.41;4776888;30;20031;-94
2022/05/18 05:22:57;;;;;;;6.43;4.10;;;;;;;17.85;100.00;94865.00;4792050;30;20038;-93
2022/05/18 05:25:23;;;;;;;12.07;4.13;;;;;;;18.22;100.00;94865.75;4776759;30;20392;-94
2022/05/18 05:27:49;;;;;;;7.45;3.70;;;;;;;18.47;100.00;94865.38;4791674;29;20146;-94
2022/05/18 05:30:14;;;;;;;8.32;4.30;;;;;;;18.33;100.00;94868.13;4777037;30;20037;-94
2022/05/18 05:32:41;;;;;;;11.30;4.10;;;;;;;18.57;100.00;94872.28;4791876;29;20092;-93
2022/05/18 05:35:08;;;;;;;14.45;4.45;;;;;;;18.41;100.00;94883.31;4791858;30;20070;-94
2022/05/18 05:37:33;;;;;;;19.17;4.38;;;;;;;18.62;100.00;94874.81;4791896;30;20338;-94
2022/05/18 05:39:59;;;;;;;16.80;5.05;;;;;;;18.45;100.00;94881.59;4791834;30;20037;-94
2022/05/18 05:42:24;;;;;;;15.55;4.15;;;;;;;18.94;100.00;94886.19;4791355;30;20331;-94
2022/05/18 05:44:50;;;;;;;8.82;4.00;;;;;;;19.19;100.00;94887.38;4791425;30;20027;-94
2022/05/18 05:47:16;;;;;;;9.82;4.32;;;;;;;18.98;100.00;94896.94;4791545;30;20030;-93
2022/05/18 05:49:42;;;;;;;9.55;4.43;;;;;;;19.33;100.00;94908.47;4791580;30;20035;-95
2022/05/18 05:52:09;;;;;;;11.90;4.28;;;;;;;19.19;100.00;94903.31;4792612;30;20510;-94
2022/05/18 05:54:35;;;;;;;9.93;3.92;;;;;;;19.47;100.00;94916.34;4792822;30;20031;-94
2022/05/18 05:57:04;;;;;;;10.05;4.18;;;;;;;19.50;100.00;94918.38;4806396;29;20461;-94
2022/05/18 05:59:31;;;;;;;10.65;3.80;;;;;;;19.43;100.00;94917.25;4791724;30;20088;-94
2022/05/18 06:02:06;;;;;;;8.88;4.10;;;;;;;19.60;100.00;94925.25;4792289;29;20089;-95
2022/05/18 06:04:33;;;;;;;13.75;4.32;;;;;;;19.23;100.00;94916.75;4791379;30;20084;-94
2022/05/18 06:06:59;;;;;;;11.68;4.30;;;;;;;19.27;100.00;94924.88;4792412;29;20061;-93
2022/05/18 06:09:25;;;;;;;8.25;4.53;;;;;;;18.80;100.00;94931.41;4791854;30;20035;-94
2022/05/18 06:11:50;;;;;;;8.40;3.80;;;;;;;19.47;100.00;94926.16;4792847;30;20458;-93
2022/05/18 06:14:17;;;;;;;12.57;4.03;;;;;;;19.14;100.00;94932.66;4806413;29;20193;-93
2022/05/18 06:16:43;;;;;;;10.85;4.72;;;;;;;19.50;100.00;94928.19;4806228;29;20023;-94
2022/05/18 06:19:08;;;;;;;11.82;4.15;;;;;;;19.52;100.00;94927.91;4806355;29;20038;-94
2022/05/18 06:21:34;;;;;;;10.65;4.93;;;;;;;19.94;100.00;94932.78;4792381;30;20038;-94
2022/05/18 06:24:00;;;;;;;10.43;4.80;;;;;;;20.16;100.00;94937.19;4792541;30;20092;-94
2022/05/18 06:26:26;;;;;;;11.40;4.82;;;;;;;19.71;100.00;94940.91;4791041;29;20038;-94
2022/05/18 06:28:52;;;;;;;11.73;5.15;;;;;;;19.67;100.00;94939.97;4806095;29;20469;-95
2022/05/18 06:34:48;;;;;;;14.52;5.53;;;;;;;19.94;100.00;94941.56;4792188;30;20110;-94
2022/05/18 06:37:15;;;;;;;18.85;5.82;;;;;;;19.82;100.00;94946.69;4805879;29;20035;-94
2022/05/18 06:39:41;;;;;;;18.80;6.13;;;;;;;19.93;100.00;94947.97;4791269;30;20036;-93
2022/05/18 06:42:06;;;;;;;16.38;6.13;;;;;;;19.82;100.00;94955.47;4806029;29;20039;-94
2022/05/18 06:44:32;;;;;;;16.02;6.43;;;;;;;19.88;100.00;94951.53;4775829;30;20046;-94
2022/05/18 06:46:59;;;;;;;13.52;5.18;;;;;;;20.32;100.00;94948.91;4805677;29;20035;-93
2022/05/18 06:49:29;;;;;;;14.93;5.75;;;;;;;20.33;100.00;94958.44;4790713;29;20082;-93
2022/05/18 06:51:58;;;;;;;12.27;5.15;;;;;;;20.40;100.00;94960.63;4805419;29;20046;-94
2022/05/18 06:54:23;;;;;;;11.63;5.13;;;;;;;20.90;100.00;94959.28;4791960;30;20039;-93
2022/05/18 06:56:49;;;;;;;17.45;5.53;;;;;;;20.98;100.00;94955.03;4806002;29;20074;-94
2022/05/18 06:59:14;;;;;;;12.68;4.85;;;;;;;21.13;100.00;94952.94;4791065;30;20039;-94
2022/05/18 07:01:41;;;;;;;15.07;5.43;;;;;;;21.31;100.00;94961.66;4791945;30;20054;-94
2022/05/18 07:04:10;;;;;;;9.60;5.03;;;;;;;21.25;100.00;94954.91;4807142;29;20039;-94
2022/05/18 07:06:39;;;;;;;10.40;4.95;;;;;;;21.25;100.00;94962.91;4791757;29;20095;-94
2022/05/18 07:09:15;;;;;;;12.63;5.03;;;;;;;21.54;100.00;94962.16;4793839;30;20361;-95
2022/05/18 07:11:42;;;;;;;21.27;6.35;;;;;;;21.14;100.00;94965.16;4792872;30;20134;-94
2022/05/18 07:14:07;;;;;;;9.10;4.78;;;;;;;21.46;100.00;94973.63;4794339;29;20440;-95
2022/05/18 07:16:33;;;;;;;12.43;5.57;;;;;;;21.53;100.00;94973.13;4795384;30;20130;-94
2022/05/18 07:19:00;;;;;;;13.90;5.15;;;;;;;21.78;100.00;94973.31;4794301;30;20042;-95
2022/05/18 07:21:26;;;;;;;10.18;4.93;;;;;;;21.67;100.00;94979.03;4796665;30;20035;-96
2022/05/18 07:23:52;;;;;;;12.98;4.38;;;;;;;21.69;100.00;94984.03;4809572;29;20039;-96
2022/05/18 07:26:19;;;;;;;9.60;4.70;;;;;;;21.82;100.00;94992.91;4794719;30;20035;-96
2022/05/18 07:28:45;;;;;;;13.85;5.30;;;;;;;21.57;100.00;94984.69;4780129;30;20043;-95
2022/05/18 07:31:11;;;;;;;14.38;4.35;;;;;;;21.95;100.00;94993.72;4795977;30;20039;-94
2022/05/18 07:33:36;;;;;;;16.80;5.93;;;;;;;21.96;100.00;94992.66;4812129;29;20046;-94
2022/05/18 07:36:03;;;;;;;14.48;4.97;;;;;;;21.95;100.00;94994.53;4796426;30;20122;-95
2022/05/18 07:38:30;;;;;;;20.70;6.10;;;;;;;21.64;100.00;94995.63;4810759;29;20035;-94
2022/05/18 07:40:56;;;;;;;12.43;6.53;;;;;;;21.44;100.00;94997.16;4780034;30;20043;-95
2022/05/18 07:43:22;;;;;;;20.23;8.27;;;;;;;21.17;100.00;95001.81;4810518;29;20089;-94
2022/05/18 07:45:49;;;;;;;18.30;5.72;;;;;;;21.68;100.00;94998.47;4795667;30;20054;-95
2022/05/18 07:48:15;;;;;;;16.92;6.68;;;;;;;21.92;100.00;95005.84;4779941;30;20050;-94
2022/05/18 07:50:41;;;;;;;16.45;7.30;;;;;;;21.75;100.00;95010.19;4811570;29;20040;-95
2022/05/18 07:53:07;;;;;;;15.70;6.70;;;;;;;22.10;100.00;95017.19;4811445;29;20142;-95
2022/05/18 07:55:32;;;;;;;14.50;6.75;;;;;;;22.15;100.00;95011.66;4811277;29;20418;-95
2022/05/18 07:57:58;;;;;;;18.60;7.00;;;;;;;21.98;100.00;95007.22;4794587;30;20125;-95
2022/05/18 08:00:24;;;;;;;13.75;6.10;;;;;;;22.29;100.00;95007.94;4794785;29;20039;-94
2022/05/18 08:02:51;;;;;;;13.25;6.03;;;;;;;22.44;100.00;95009.22;4796471;30;20047;-95
2022/05/18 08:05:17;;;;;;;14.02;7.13;;;;;;;22.39;100.00;95012.09;4798605;29;20054;-95
2022/05/18 08:07:46;;;;;;;17.63;6.70;;;;;;;22.58;100.00;95012.41;4813103;29;20043;-95
2022/05/18 08:15:51;;;;;;;21.17;7.25;;;;;;;22.35;100.00;95016.53;4808891;29;20073;-95
2022/05/18 08:18:20;;;;;;;13.70;6.75;;;;;;;22.42;100.00;95022.09;4814443;29;20074;-95
2022/05/18 08:20:47;;;;;;;28.30;6.53;;;;;;;22.58;100.00;95019.66;4812439;29;20042;-94
2022/05/18 08:23:12;;;;;;;15.55;7.18;;;;;;;22.67;100.00;95027.59;4814332;29;20035;-94
2022/05/18 08:25:39;;;;;;;16.00;7.35;;;;;;;22.40;100.00;95027.00;4796802;29;20107;-94
2022/05/18 08:28:08;;;;;;;11.57;6.75;;;;;;;22.76;100.00;95024.84;4800804;30;20155;-96
2022/05/18 08:30:35;;;;;;;14.27;6.93;;;;;;;22.68;100.00;95027.28;4800623;30;20098;-95
2022/05/18 08:33:03;;;;;;;13.50;6.25;;;;;;;22.44;100.00;95010.00;4801770;30;20046;-95
2022/05/18 08:35:29;;;;;;;12.55;5.32;;;;;;;22.75;100.00;95018.72;4814259;29;20045;-95
2022/05/18 08:37:58;;;;;;;13.70;5.50;;;;;;;22.90;100.00;95016.53;4811875;29;20101;-95
2022/05/18 08:40:53;;;;;;;11.20;4.45;;;;;;;22.65;100.00;95021.78;4799536;30;20072;-96
2022/05/18 08:43:34;;;;;;;13.00;4.63;;;;;;;22.66;100.00;95021.44;4816259;29;20031;-95
2022/05/18 08:46:02;;;;;;;14.10;5.32;;;;;;;22.37;100.00;95022.31;4810751;29;20039;-96
2022/05/18 08:48:57;;;;;;;11.65;5.57;;;;;;;22.93;100.00;95027.31;4796445;30;20068;-96
2022/05/18 08:51:51;;;;;;;10.55;4.70;;;;;;;23.07;100.00;95031.59;4781738;30;20339;-95
2022/05/18 08:54:37;;;;;;;8.20;4.78;;;;;;;23.07;100.00;95034.25;4796761;29;20043;-94
2022/05/18 08:57:04;;;;;;;15.43;5.88;;;;;;;23.18;100.00;95038.06;4795388;30;20031;-94
2022/05/18 08:59:35;;;;;;;11.55;6.13;;;;;;;22.91;100.00;95037.56;4794738;30;20063;-95
2022/05/18 09:02:16;;;;;;;11.40;5.93;;;;;;;22.83;100.00;95030.44;4795446;29;20043;-96
2022/05/18 09:04:46;;;;;;;11.75;5.43;;;;;;;22.83;100.00;95033.88;4794397;30;20038;-95
2022/05/18 09:07:15;;;;;;;10.95;5.85;;;;;;;22.76;100.00;95035.50;4793581;29;20491;-96
2022/05/18 09:12:41;;;;;;;16.15;5.95;;;;;;;22.52;100.00;95036.97;4806231;29;20058;-95
2022/05/18 09:15:09;;;;;;;10.88;5.45;;;;;;;22.44;100.00;95044.72;4808107;29;20039;-95
2022/05/18 09:17:44;;;;;;;10.27;5.60;;;;;;;22.37;100.00;95038.34;4792830;30;20042;-95
2022/05/18 09:20:22;;;;;;;13.70;5.55;;;;;;;22.45;100.00;95040.94;4794402;30;20042;-95
2022/05/18 09:23:19;;;;;;;12.75;5.65;;;;;;;22.79;100.00;95045.53;4793250;30;20047;-94
2022/05/18 09:25:54;;;;;;;16.30;5.45;;;;;;;22.79;100.00;95050.88;4793791;30;20035;-95
2022/05/18 09:28:38;;;;;;;11.75;5.00;;;;;;;22.74;100.00;95039.28;4793810;30;20039;-94
2022/05/18 09:31:04;;;;;;;7.88;3.88;;;;;;;23.14;100.00;95050.53;4793935;30;20031;-96
2022/05/18 09:33:59;;;;;;;11.43;3.50;;;;;;;23.23;100.00;95048.53;4794374;30;20042;-95
2022/05/18 09:36:42;;;;;;;13.32;3.08;;;;;;;23.33;90.75;95055.41;4793561;30;20042;-95
2022/05/18 09:39:13;;;;;;;8.93;3.30;;;;;;;23.10;91.24;95046.97;4795554;30;20035;-95
2022/05/18 09:41:45;;;;;;;4.15;2.97;;;;;;;23.30;97.81;95048.81;4794414;30;20035;-96
2022/05/18 09:44:11;;;;;;;8.60;4.10;;;;;;;23.73;100.00;95048.59;4780923;30;20027;-96
2022/05/18 09:46:37;;;;;;;8.15;3.45;;;;;;;23.84;95.61;95047.06;4794312;30;20326;-94
2022/05/18 09:49:19;;;;;;;8.40;3.92;;;;;;;23.68;100.00;95052.28;4778149;30;20039;-94
2022/05/18 09:51:45;;;;;;;7.65;3.60;;;;;;;23.46;94.88;95050.84;4793901;30;20046;-95
2022/05/18 09:54:12;;;;;;;9.32;3.70;;;;;;;23.57;100.00;95043.94;4792883;30;20046;-95
2022/05/18 09:56:56;;;;;;;5.88;2.97;;;;;;;23.92;92.59;95056.06;4794853;30;20046;-95
2022/05/18 09:59:28;;;;;;;8.02;3.17;;;;;;;23.53;69.96;95045.72;4777294;30;20035;-95
2022/05/18 10:07:28;;;;;;;9.70;2.58;;;;;;;23.79;68.35;95052.59;4793072;29;20082;-95
2022/05/18 10:10:18;;;;;;;4.28;2.00;;;;;;;23.05;58.39;95055.97;4794412;30;20035;-95
2022/05/18 10:12:48;;;;;;;9.02;2.97;;;;;;;23.74;74.88;95052.84;4809438;29;20430;-95
2022/05/18 10:15:25;;;;;;;7.05;2.70;;;;;;;23.99;73.11;95052.84;4793283;30;20130;-96
2022/05/18 10:17:53;;;;;;;6.28;2.75;;;;;;;24.05;81.06;95046.16;4795215;30;20042;-94
2022/05/18 10:20:30;;;;;;;4.90;2.63;;;;;;;23.82;81.21;95057.31;4778169;30;20039;-95
2022/05/18 10:22:56;;;;;;;7.43;3.13;;;;;;;24.12;90.22;95048.25;4793407;30;20035;-96
2022/05/18 10:25:33;;;;;;;7.13;2.55;;;;;;;24.06;79.24;95045.03;4792577;30;20446;-95
2022/05/18 10:28:03;;;;;;;9.63;2.47;;;;;;;23.73;69.07;95048.59;4792600;30;20039;-95
2022/05/18 10:30:32;;;;;;;10.18;2.67;;;;;;;23.94;75.64;95053.03;4808577;29;20032;-95
2022/05/18 10:36:26;;;;;;;6.32;2.60;;;;;;;24.03;82.53;95036.88;4800366;30;20088;-95
2022/05/18 10:38:54;;;;;;;3.55;2.47;;;;;;;24.14;85.57;95048.69;4784301;30;20031;-96
2022/05/18 10:41:26;;;;;;;4.57;2.90;;;;;;;24.40;87.32;95042.97;4810337;29;20034;-96
2022/05/18 10:43:54;;;;;;;12.30;3.75;;;;;;;24.00;100.00;95044.44;4794683;30;20073;-96
2022/05/18 10:46:29;;;;;;;8.77;2.97;;;;;;;23.78;83.39;95045.69;4795919;30;20042;-96
2022/05/18 10:49:01;;;;;;;9.63;2.70;;;;;;;23.92;81.19;95047.25;4796481;29;20458;-94
2022/05/18 10:51:35;;;;;;;6.13;2.75;;;;;;;24.29;93.01;95045.31;4801925;30;20043;-95
2022/05/18 10:54:31;;;;;;;13.60;2.90;;;;;;;24.16;91.74;95043.78;4786363;30;20039;-96
2022/05/18 10:57:22;;;;;;;4.25;2.63;;;;;;;24.52;92.46;95044.00;4788427;30;20122;-95
2022/05/18 11:00:06;;;;;;;5.95;2.80;;;;;;;24.31;100.00;95036.94;4817283;29;20066;-96
2022/05/18 11:03:00;;;;;;;4.95;2.53;;;;;;;24.18;97.89;95040.78;4799669;30;20061;-95
2022/05/18 11:05:29;;;;;;;6.88;2.80;;;;;;;24.16;88.72;95048.38;4780982;29;20035;-95
2022/05/18 11:07:54;;;;;;;6.70;2.90;;;;;;;23.93;96.00;95052.28;4800817;29;20043;-95
2022/05/18 11:10:23;;;;;;;3.92;2.60;;;;;;;24.06;98.02;95037.00;4798409;30;20035;-96
2022/05/18 11:16:17;;;;;;;7.18;3.00;;;;;;;24.48;94.20;95043.16;4795013;30;20038;-95
2022/05/18 11:19:21;;;;;;;5.40;3.00;;;;;;;24.58;100.00;95042.66;4795543;30;20096;-96
2022/05/18 11:22:33;;;;;;;7.10;2.88;;;;;;;24.62;100.00;95040.09;4784747;30;20039;-94
2022/05/18 11:25:14;;;;;;;7.97;2.92;;;;;;;24.83;98.49;95045.28;4799294;30;20047;-94
2022/05/18 11:27:49;;;;;;;5.78;2.75;;;;;;;25.03;93.16;95040.03;4803145;30;20203;-94
2022/05/18 11:30:18;;;;;;;7.82;2.78;;;;;;;25.03;95.55;95046.16;4784353;30;20106;-94
2022/05/18 11:32:50;;;;;;;5.95;2.65;;;;;;;24.51;95.14;95026.38;4798793;30;20035;-95
2022/05/18 11:35:55;;;;;;;12.93;2.63;;;;;;;24.58;98.69;95037.31;4798782;30;20039;-96
2022/05/18 11:38:57;;;;;;;8.30;2.92;;;;;;;24.66;95.81;95030.25;4798556;29;20066;-95
2022/05/18 11:41:41;;;;;;;6.65;3.08;;;;;;;24.96;100.00;95030.69;4799226;29;20047;-96
2022/05/18 11:44:09;;;;;;;7.40;3.03;;;;;;;24.28;89.75;95041.06;4796293;30;20446;-95
2022/05/18 11:46:50;;;;;;;6.47;3.03;;;;;;;24.46;91.56;95043.50;4799662;30;20080;-95
2022/05/18 11:49:38;;;;;;;6.18;3.20;;;;;;;24.59;88.68;95033.50;4798019;30;20039;-96
2022/05/18 11:52:04;;;;;;;5.68;2.70;;;;;;;24.42;93.96;95035.34;4781366;30;20039;-95
2022/05/18 11:54:59;;;;;;;6.22;3.17;;;;;;;24.97;100.00;95031.47;4797899;30;20039;-95
2022/05/18 11:57:45;;;;;;;6.32;2.83;;;;;;;25.36;100.00;95033.56;4798194;30;20430;-96
2022/05/18 12:00:24;;;;;;;7.80;3.00;;;;;;;25.80;100.00;95033.47;4812277;29;20031;-94
2022/05/18 12:03:31;;;;;;;9.30;3.20;;;;;;;25.29;100.00;95041.44;4799275;30;20039;-95
2022/05/18 12:05:59;;;;;;;6.30;2.80;;;;;;;25.30;93.43;95040.31;4782919;29;20074;-95
2022/05/18 12:08:34;;;;;;;7.50;2.75;;;;;;;25.16;87.87;95043.41;4800593;29;20040;-95
2022/05/18 12:11:45;;;;;;;5.88;2.85;;;;;;;25.65;98.98;95037.72;4798852;30;20358;-96
2022/05/18 12:14:29;;;;;;;5.03;2.60;;;;;;;25.69;93.91;95043.19;4782678;30;20040;-96
2022/05/18 12:17:11;;;;;;;2.95;2.58;;;;;;;25.16;82.62;95043.41;4806084;30;20062;-96
2022/05/18 12:20:16;;;;;;;9.25;3.03;;;;;;;25.75;91.95;95043.69;4817947;29;20046;-96
2022/05/18 12:22:51;;;;;;;6.40;2.97;;;;;;;25.83;77.81;95042.72;4800930;30;20047;-96
2022/05/18 12:25:23;;;;;;;6.72;2.75;;;;;;;26.06;92.43;95042.06;4799073;30;20035;-95
2022/05/18 12:27:51;;;;;;;4.20;2.80;;;;;;;25.95;87.98;95049.88;4780094;30;20039;-95
2022/05/18 12:30:21;;;;;;;5.93;2.80;;;;;;;25.86;93.58;95043.94;4809130;29;20433;-95
2022/05/18 12:32:47;;;;;;;7.38;3.00;;;;;;;25.78;82.96;95049.13;4809765;29;20455;-95
2022/05/18 12:35:20;;;;;;;10.05;2.75;;;;;;;26.04;81.63;95049.69;4800411;29;20464;-96
2022/05/18 12:38:09;;;;;;;4.43;2.60;;;;;;;25.52;77.34;95047.78;4810316;29;20030;-96
2022/05/18 12:41:00;;;;;;;6.57;3.13;;;;;;;25.13;82.99;95050.25;4798057;30;20043;-96
2022/05/18 12:43:32;;;;;;;10.15;2.70;;;;;;;25.66;78.07;95049.22;4798563;30;20035;-96
2022/05/18 12:46:22;;;;;;;5.07;2.30;;;;;;;25.44;72.62;95058.66;4798747;30;20043;-95
2022/05/18 12:49:04;;;;;;;5.45;2.58;;;;;;;24.92;74.17;95045.88;4795061;30;20051;-96
2022/05/18 12:51:30;;;;;;;4.57;2.40;;;;;;;25.34;72.59;95054.59;4799300;30;20073;-95
2022/05/18 12:54:11;;;;;;;6.25;2.38;;;;;;;25.50;77.55;95057.31;4797911;30;20084;-95
2022/05/18 12:56:36;;;;;;;4.38;2.35;;;;;;;25.58;69.84;95055.56;4796456;30;20035;-95
2022/05/18 12:59:23;;;;;;;3.17;2.20;;;;;;;26.09;70.13;95052.88;4797944;30;20097;-94
2022/05/18 13:02:08;;;;;;;3.97;2.17;;;;;;;25.73;68.62;95060.16;4796141;30;20446;-95
2022/05/18 13:04:43;;;;;;;4.45;1.90;;;;;;;26.23;70.97;95055.13;4796821;30;20039;-95
2022/05/18 13:07:31;;;;;;;4.88;2.00;;;;;;;26.10;72.38;95061.72;4797034;29;20039;-94
2022/05/18 13:10:20;;;;;;;4.32;2.03;;;;;;;26.54;70.35;95058.06;4819523;29;20050;-95
2022/05/18 13:12:48;;;;;;;4.93;2.10;;;;;;;26.19;65.43;95064.25;4797487;29;20039;-95
2022/05/18 13:15:29;;;;;;;3.83;2.17;;;;;;;26.16;69.25;95059.53;4797695;29;20106;-94
2022/05/18 13:18:07;;;;;;;10.13;1.95;;;;;;;26.25;65.01;95060.13;4796045;30;20035;-95
2022/05/18 13:20:46;;;;;;;6.07;2.00;;;;;;;26.50;65.09;95054.50;4797506;30;20035;-95
2022/05/18 13:23:31;;;;;;;4.18;1.83;;;;;;;26.76;63.23;95066.53;4797505;30;20039;-95
2022/05/18 13:26:11;;;;;;;4.60;2.03;;;;;;;26.33;66.56;95051.09;4781981;30;20104;-95
2022/05/18 13:28:37;;;;;;;4.03;1.95;;;;;;;26.00;63.52;95052.31;4807762;29;20038;-95
2022/05/18 13:31:05;;;;;;;4.82;2.03;;;;;;;26.59;66.17;95056.97;4809625;29;20039;-95
2022/05/18 13:33:55;;;;;;;5.75;2.10;;;;;;;26.53;61.73;95053.78;4793799;30;20046;-95
2022/05/18 13:36:36;;;;;;;2.70;1.70;;;;;;;26.76;65.50;95061.94;4798703;29;20049;-95
2022/05/18 13:39:07;;;;;;;4.65;1.60;;;;;;;27.15;62.10;95058.44;4794003;30;20031;-93
2022/05/18 13:41:34;;;;;;;4.32;1.88;;;;;;;26.48;61.49;95059.47;4794250;29;20031;-95
2022/05/18 13:44:02;;;;;;;6.03;2.33;;;;;;;26.89;61.50;95054.53;4809795;29;20038;-95
2022/05/18 13:46:28;;;;;;;6.63;1.60;;;;;;;27.06;57.25;95056.00;4793744;29;20111;-94
2022/05/18 13:48:59;;;;;;;4.93;1.73;;;;;;;27.33;57.94;95053.38;4778520;30;20035;-94
2022/05/18 13:51:31;;;;;;;5.95;2.20;;;;;;;27.04;54.71;95054.78;4807863;29;20043;-94
2022/05/18 13:54:06;;;;;;;2.10;1.45;;;;;;;27.18;55.60;95054.25;4808146;29;20062;-95
2022/05/18 13:56:37;;;;;;;3.67;1.55;;;;;;;26.56;54.75;95055.78;4778452;30;20039;-95
2022/05/18 13:59:09;;;;;;;7.63;1.98;;;;;;;27.65;55.13;95060.41;4808512;29;20461;-96
2022/05/18 14:01:44;;;;;;;5.93;1.80;;;;;;;27.68;56.35;95061.63;4778251;30;20035;-95
2022/05/18 14:04:15;;;;;;;4.65;1.58;;;;;;;26.94;58.06;95056.91;4794506;30;20039;-95
2022/05/18 14:06:40;;;;;;;5.00;1.67;;;;;;;27.73;57.95;95062.09;4793642;29;20141;-94
2022/05/18 14:09:07;;;;;;;3.67;1.95;;;;;;;27.82;55.40;95052.97;4808489;29;20481;-95
2022/05/18 14:11:33;;;;;;;4.85;1.70;;;;;;;27.50;54.72;95059.41;4777306;30;20039;-95
2022/05/18 14:14:00;;;;;;;6.13;2.00;;;;;;;26.50;56.27;95054.50;4792146;30;20076;-95
2022/05/18 14:16:46;;;;;;;8.68;1.70;;;;;;;27.64;57.25;95058.88;4808703;29;20039;-95
2022/05/18 14:19:19;;;;;;;3.33;1.40;;;;;;;28.50;55.75;95055.84;4793586;30;20435;-95
2022/05/18 14:21:47;;;;;;;3.58;1.50;;;;;;;30.13;48.21;95059.28;4799068;30;20041;-95
2022/05/18 14:24:18;;;;;;;1.77;1.42;;;;;;;31.02;46.96;95060.03;4810329;29;20117;-95
2022/05/18 14:26:56;;;;;;;3.80;1.50;;;;;;;31.56;47.87;95054.72;4795214;30;20039;-96
2022/05/18 14:29:32;;;;;;;6.15;1.50;;;;;;;32.16;46.84;95062.41;4794802;30;20042;-96
2022/05/18 14:32:03;;;;;;;3.80;1.40;;;;;;;33.67;42.55;95053.91;4796917;30;20043;-95
2022/05/18 14:35:02;;;;;;;7.38;1.40;;;;;;;31.42;45.68;95057.41;4799388;30;20055;-96
2022/05/18 14:37:31;;;;;;;3.33;1.45;;;;;;;31.01;46.21;95053.09;4809885;29;20428;-94
2022/05/18 14:39:59;;;;;;;5.10;1.60;;;;;;;30.92;46.94;95049.97;4797391;29;20043;-96
2022/05/18 14:42:30;;;;;;;7.05;1.63;;;;;;;30.29;48.36;95048.94;4808652;29;20039;-96
2022/05/18 14:45:03;;;;;;;4.00;1.50;;;;;;;31.13;48.19;95041.91;4778363;30;20538;-96
2022/05/18 14:47:44;;;;;;;4.63;1.33;;;;;;;32.37;44.03;95053.47;4793466;30;20035;-95
2022/05/18 14:50:09;;;;;;;3.50;1.52;;;;;;;29.73;48.63;95057.09;4808255;29;20043;-95
2022/05/18 14:52:36;;;;;;;3.20;1.75;;;;;;;31.86;47.51;95053.53;4795120;30;20039;-95
2022/05/18 14:55:08;;;;;;;7.28;1.73;;;;;;;33.07;45.33;95057.41;4796891;30;20034;-95
2022/05/18 14:57:39;;;;;;;6.88;1.90;;;;;;;29.46;50.65;95048.38;4809184;29;20031;-96
2022/05/18 15:00:15;;;;;;;3.53;1.52;;;;;;;28.60;50.72;95059.81;4780272;30;20035;-96
2022/05/18 15:02:44;;;;;;;11.02;1.95;;;;;;;27.91;53.64;95054.28;4794303;30;20039;-96
2022/05/18 15:05:22;;;;;;;7.13;1.75;;;;;;;31.58;47.11;95059.75;4796049;30;20035;-95
2022/05/18 15:07:52;;;;;;;4.60;1.70;;;;;;;30.93;44.25;95057.72;4793634;29;20130;-95
2022/05/18 15:10:51;;;;;;;4.22;1.30;;;;;;;31.66;43.02;95058.56;4812450;29;20027;-96
2022/05/18 15:13:23;;;;;;;4.22;1.42;;;;;;;29.73;46.61;95053.59;4793839;30;20068;-96
2022/05/18 15:15:58;;;;;;;8.20;1.60;;;;;;;30.51;45.59;95046.34;4795010;30;20035;-94
2022/05/18 15:18:28;;;;;;;2.92;1.60;;;;;;;30.82;45.44;95057.66;4794025;30;20043;-96
2022/05/18 15:20:57;;;;;;;4.70;1.67;;;;;;;29.77;47.23;95052.47;4780675;30;20130;-96
2022/05/18 15:23:42;;;;;;;6.03;1.67;;;;;;;29.22;49.13;95045.06;4794570;29;20050;-96
2022/05/18 15:26:33;;;;;;;5.53;1.42;;;;;;;31.31;43.94;95049.28;4796896;30;20067;-96
2022/05/18 15:29:01;;;;;;;3.50;1.50;;;;;;;31.79;43.90;95050.84;4810441;29;20044;-96
2022/05/18 15:31:34;;;;;;;3.50;1.42;;;;;;;30.98;42.88;95040.31;4813412;29;20047;-96
2022/05/18 15:34:08;;;;;;;2.70;1.10;;;;;;;33.49;39.99;95046.66;4781154;29;20042;-96
2022/05/18 15:36:34;;;;;;;4.57;1.35;;;;;;;30.44;44.36;95054.44;4813555;29;20032;-96
2022/05/18 15:38:59;;;;;;;2.20;1.38;;;;;;;32.41;39.40;95064.28;4799660;30;20101;-95
2022/05/18 15:41:27;;;;;;;3.60;1.38;;;;;;;30.63;40.82;95055.28;4783767;30;20089;-96
2022/05/18 15:43:53;;;;;;;3.00;1.20;;;;;;;31.79;39.37;95061.69;4782901;30;20038;-95
2022/05/18 15:46:30;;;;;;;1.88;1.30;;;;;;;30.61;41.25;95063.75;4782655;30;20437;-96
2022/05/18 15:48:57;;;;;;;3.03;1.35;;;;;;;30.63;41.96;95058.78;4797051;30;20046;-96
2022/05/18 15:51:22;;;;;;;4.80;1.40;;;;;;;30.95;40.10;95060.00;4810817;29;20059;-95
2022/05/18 15:54:00;;;;;;;6.85;1.80;;;;;;;29.49;42.48;95051.09;4785456;30;20088;-96
2022/05/18 15:56:27;;;;;;;3.30;1.20;;;;;;;31.18;40.47;95059.66;4801074;30;20095;-95
2022/05/18 15:58:53;;;;;;;4.28;1.35;;;;;;;31.35;39.77;95057.38;4784207;30;20484;-96
2022/05/18 16:01:20;;;;;;;3.97;1.35;;;;;;;32.24;38.74;95055.78;4800754;30;20051;-96
2022/05/18 16:03:47;;;;;;;4.68;1.42;;;;;;;29.83;41.58;95052.09;4782062;29;20031;-96
2022/05/18 16:06:15;;;;;;;3.15;1.30;;;;;;;30.85;39.45;95066.94;4797190;30;20035;-95
2022/05/18 16:08:42;;;;;;;2.92;1.33;;;;;;;29.02;42.01;95058.75;4796483;29;20133;-95
2022/05/18 16:11:08;;;;;;;3.75;1.13;;;;;;;29.43;42.18;95055.31;4797677;30;20031;-95
2022/05/18 16:13:36;;;;;;;4.85;1.35;;;;;;;29.62;41.24;95059.69;4782268;30;20064;-95
2022/05/18 16:16:03;;;;;;;7.65;1.67;;;;;;;30.47;40.55;95056.38;4796998;30;20101;-95
2022/05/18 16:18:29;;;;;;;2.58;1.40;;;;;;;28.62;42.71;95058.31;4796505;30;20031;-96
2022/05/18 16:21:08;;;;;;;;;;;;;;;;;;;;;
2022/05/18 16:23:34;;;;;;;3.35;1.35;;;;;;;28.84;42.18;95052.41;4796641;30;20035;-95
2022/05/18 16:26:01;;;;;;;2.10;1.13;;;;;;;30.17;39.37;95049.28;4795876;30;20062;-94